sensor_id;sensor_type;location;lat;lon;timestamp;P1;durP1;ratioP1;P2;durP2;ratioP2
45476;SDS011;31958;51.756;-2.556;2024-01-15T00:02:07;9.57;;;1.17;;
45476;SDS011;31958;51.756;-2.556;2024-01-15T00:04:40;5.72;;;1.10;;
45476;SDS011;31958;51.756;-2.556;2024-01-15T00:07:06;5.05;;;1.10;;
45476;SDS011;31958;51.756;-2.556;2024-01-15T00:09:31;1.90;;;0.80;;
45476;SDS011;31958;51.756;-2.556;2024-01-15T00:11:57;5.97;;;1.10;;
45476;SDS011;31958;51.756;-2.556;2024-01-15T00:14:22;2.28;;;0.95;;
45476;SDS011;31958;51.756;-2.556;2024-01-15T00:16:48;3.28;;;0.77;;
45476;SDS011;31958;51.756;-2.556;2024-01-15T00:19:16;3.78;;;0.80;;
45476;SDS011;31958;51.756;-2.556;2024-01-15T00:21:41;3.97;;;1.10;;
45476;SDS011;31958;51.756;-2.556;2024-01-15T00:24:07;2.70;;;0.88;;
45476;SDS011;31958;51.756;-2.556;2024-01-15T00:26:32;3.35;;;1.02;;
45476;SDS011;31958;51.756;-2.556;2024-01-15T00:28:57;3.20;;;1.00;;
45476;SDS011;31958;51.756;-2.556;2024-01-15T00:31:23;2.92;;;1.08;;
45476;SDS011;31958;51.756;-2.556;2024-01-15T00:33:48;2.05;;;0.88;;
45476;SDS011;31958;51.756;-2.556;2024-01-15T00:36:14;3.17;;;1.30;;
45476;SDS011;31958;51.756;-2.556;2024-01-15T00:38:40;5.05;;;1.00;;
45476;SDS011;31958;51.756;-2.556;2024-01-15T00:41:05;1.73;;;0.93;;
45476;SDS011;31958;51.756;-2.556;2024-01-15T00:43:30;4.00;;;1.10;;
45476;SDS011;31958;51.756;-2.556;2024-01-15T00:45:55;1.77;;;1.02;;
45476;SDS011;31958;51.756;-2.556;2024-01-15T00:48:21;4.78;;;1.00;;
45476;SDS011;31958;51.756;-2.556;2024-01-15T00:50:46;1.70;;;0.88;;
45476;SDS011;31958;51.756;-2.556;2024-01-15T00:53:12;3.92;;;1.20;;
45476;SDS011;31958;51.756;-2.556;2024-01-15T00:55:37;2.17;;;0.85;;
45476;SDS011;31958;51.756;-2.556;2024-01-15T00:58:03;2.10;;;1.00;;
45476;SDS011;31958;51.756;-2.556;2024-01-15T01:00:28;5.10;;;1.02;;
45476;SDS011;31958;51.756;-2.556;2024-01-15T01:02:54;2.42;;;0.95;;
45476;SDS011;31958;51.756;-2.556;2024-01-15T01:05:19;1.83;;;0.88;;
45476;SDS011;31958;51.756;-2.556;2024-01-15T01:07:44;4.85;;;1.08;;
45476;SDS011;31958;51.756;-2.556;2024-01-15T01:10:10;3.58;;;1.10;;
45476;SDS011;31958;51.756;-2.556;2024-01-15T01:12:35;2.35;;;1.00;;
45476;SDS011;31958;51.756;-2.556;2024-01-15T01:15:01;2.40;;;1.38;;
45476;SDS011;31958;51.756;-2.556;2024-01-15T01:17:27;2.63;;;1.17;;
45476;SDS011;31958;51.756;-2.556;2024-01-15T01:19:53;3.90;;;1.20;;
45476;SDS011;31958;51.756;-2.556;2024-01-15T01:22:18;1.63;;;0.88;;
45476;SDS011;31958;51.756;-2.556;2024-01-15T01:24:43;0.77;;;0.60;;
45476;SDS011;31958;51.756;-2.556;2024-01-15T01:27:09;4.15;;;1.38;;
45476;SDS011;31958;51.756;-2.556;2024-01-15T01:29:34;1.75;;;0.90;;
45476;SDS011;31958;51.756;-2.556;2024-01-15T01:32:00;3.70;;;1.73;;
45476;SDS011;31958;51.756;-2.556;2024-01-15T01:34:25;3.33;;;1.50;;
45476;SDS011;31958;51.756;-2.556;2024-01-15T01:36:51;5.50;;;1.20;;
45476;SDS011;31958;51.756;-2.556;2024-01-15T01:39:16;3.95;;;1.50;;
45476;SDS011;31958;51.756;-2.556;2024-01-15T01:41:41;4.30;;;1.15;;
45476;SDS011;31958;51.756;-2.556;2024-01-15T01:44:06;4.63;;;1.10;;
45476;SDS011;31958;51.756;-2.556;2024-01-15T01:46:32;1.85;;;0.90;;
45476;SDS011;31958;51.756;-2.556;2024-01-15T01:48:58;8.20;;;1.40;;
45476;SDS011;31958;51.756;-2.556;2024-01-15T01:51:26;10.88;;;1.40;;
45476;SDS011;31958;51.756;-2.556;2024-01-15T01:53:51;5.68;;;1.20;;
45476;SDS011;31958;51.756;-2.556;2024-01-15T01:56:17;3.95;;;1.50;;
45476;SDS011;31958;51.756;-2.556;2024-01-15T01:58:43;3.20;;;1.25;;
45476;SDS011;31958;51.756;-2.556;2024-01-15T02:01:09;1.88;;;1.02;;
45476;SDS011;31958;51.756;-2.556;2024-01-15T02:03:34;5.07;;;1.10;;
45476;SDS011;31958;51.756;-2.556;2024-01-15T02:06:00;6.53;;;1.25;;
45476;SDS011;31958;51.756;-2.556;2024-01-15T02:08:26;2.47;;;1.05;;
45476;SDS011;31958;51.756;-2.556;2024-01-15T02:10:51;4.07;;;1.20;;
45476;SDS011;31958;51.756;-2.556;2024-01-15T02:13:17;2.47;;;1.02;;
45476;SDS011;31958;51.756;-2.556;2024-01-15T02:15:43;3.47;;;0.88;;
45476;SDS011;31958;51.756;-2.556;2024-01-15T02:18:08;4.18;;;1.02;;
45476;SDS011;31958;51.756;-2.556;2024-01-15T02:20:33;2.63;;;0.95;;
45476;SDS011;31958;51.756;-2.556;2024-01-15T02:23:15;3.10;;;1.20;;
45476;SDS011;31958;51.756;-2.556;2024-01-15T02:25:44;4.50;;;1.15;;
45476;SDS011;31958;51.756;-2.556;2024-01-15T02:28:11;3.78;;;1.27;;
45476;SDS011;31958;51.756;-2.556;2024-01-15T02:30:37;1.83;;;1.00;;
45476;SDS011;31958;51.756;-2.556;2024-01-15T02:33:06;5.93;;;1.00;;
45476;SDS011;31958;51.756;-2.556;2024-01-15T02:35:32;2.28;;;1.08;;
45476;SDS011;31958;51.756;-2.556;2024-01-15T02:37:58;2.20;;;1.02;;
45476;SDS011;31958;51.756;-2.556;2024-01-15T02:40:23;2.13;;;0.80;;
45476;SDS011;31958;51.756;-2.556;2024-01-15T02:42:49;1.88;;;0.98;;
45476;SDS011;31958;51.756;-2.556;2024-01-15T02:45:14;1.58;;;1.00;;
45476;SDS011;31958;51.756;-2.556;2024-01-15T02:47:39;2.67;;;0.80;;
45476;SDS011;31958;51.756;-2.556;2024-01-15T02:50:05;4.60;;;1.05;;
45476;SDS011;31958;51.756;-2.556;2024-01-15T02:52:31;1.58;;;0.80;;
45476;SDS011;31958;51.756;-2.556;2024-01-15T02:54:56;2.72;;;1.05;;
45476;SDS011;31958;51.756;-2.556;2024-01-15T02:57:21;2.65;;;0.98;;
45476;SDS011;31958;51.756;-2.556;2024-01-15T02:59:46;5.20;;;0.98;;
45476;SDS011;31958;51.756;-2.556;2024-01-15T03:02:12;1.45;;;0.70;;
45476;SDS011;31958;51.756;-2.556;2024-01-15T03:04:37;7.47;;;1.23;;
45476;SDS011;31958;51.756;-2.556;2024-01-15T03:07:02;7.43;;;1.17;;
45476;SDS011;31958;51.756;-2.556;2024-01-15T03:09:28;7.30;;;1.48;;
45476;SDS011;31958;51.756;-2.556;2024-01-15T03:11:53;2.03;;;0.98;;
45476;SDS011;31958;51.756;-2.556;2024-01-15T03:14:18;1.27;;;0.80;;
45476;SDS011;31958;51.756;-2.556;2024-01-15T03:16:45;5.75;;;0.82;;
45476;SDS011;31958;51.756;-2.556;2024-01-15T03:19:10;2.65;;;1.00;;
45476;SDS011;31958;51.756;-2.556;2024-01-15T03:21:36;5.85;;;0.82;;
45476;SDS011;31958;51.756;-2.556;2024-01-15T03:24:01;5.07;;;0.82;;
45476;SDS011;31958;51.756;-2.556;2024-01-15T03:26:26;1.48;;;0.80;;
45476;SDS011;31958;51.756;-2.556;2024-01-15T03:28:52;2.65;;;0.90;;
45476;SDS011;31958;51.756;-2.556;2024-01-15T03:31:17;1.70;;;0.80;;
45476;SDS011;31958;51.756;-2.556;2024-01-15T03:33:42;2.17;;;0.90;;
45476;SDS011;31958;51.756;-2.556;2024-01-15T03:36:08;3.72;;;1.08;;
45476;SDS011;31958;51.756;-2.556;2024-01-15T03:38:34;4.90;;;1.10;;
45476;SDS011;31958;51.756;-2.556;2024-01-15T03:40:59;2.35;;;1.00;;
45476;SDS011;31958;51.756;-2.556;2024-01-15T03:43:25;1.77;;;0.90;;
45476;SDS011;31958;51.756;-2.556;2024-01-15T03:45:51;3.30;;;1.08;;
45476;SDS011;31958;51.756;-2.556;2024-01-15T03:48:17;1.40;;;0.70;;
45476;SDS011;31958;51.756;-2.556;2024-01-15T03:50:42;0.88;;;0.52;;
45476;SDS011;31958;51.756;-2.556;2024-01-15T03:53:07;1.65;;;0.65;;
45476;SDS011;31958;51.756;-2.556;2024-01-15T03:55:33;3.67;;;0.70;;
45476;SDS011;31958;51.756;-2.556;2024-01-15T03:57:58;1.40;;;0.77;;
45476;SDS011;31958;51.756;-2.556;2024-01-15T04:00:23;6.28;;;0.90;;
45476;SDS011;31958;51.756;-2.556;2024-01-15T04:02:49;2.03;;;1.05;;
45476;SDS011;31958;51.756;-2.556;2024-01-15T04:05:14;1.40;;;0.68;;
45476;SDS011;31958;51.756;-2.556;2024-01-15T04:07:39;5.05;;;1.02;;
45476;SDS011;31958;51.756;-2.556;2024-01-15T04:10:05;0.68;;;0.50;;
45476;SDS011;31958;51.756;-2.556;2024-01-15T04:12:30;4.20;;;0.93;;
45476;SDS011;31958;51.756;-2.556;2024-01-15T04:14:56;2.25;;;0.90;;
45476;SDS011;31958;51.756;-2.556;2024-01-15T04:17:21;1.08;;;0.70;;
45476;SDS011;31958;51.756;-2.556;2024-01-15T04:19:47;1.52;;;0.55;;
45476;SDS011;31958;51.756;-2.556;2024-01-15T04:22:13;1.08;;;0.55;;
45476;SDS011;31958;51.756;-2.556;2024-01-15T04:24:38;0.85;;;0.43;;
45476;SDS011;31958;51.756;-2.556;2024-01-15T04:27:04;1.70;;;0.73;;
45476;SDS011;31958;51.756;-2.556;2024-01-15T04:29:29;1.40;;;0.60;;
45476;SDS011;31958;51.756;-2.556;2024-01-15T04:31:54;0.38;;;0.35;;
45476;SDS011;31958;51.756;-2.556;2024-01-15T04:34:20;1.67;;;0.68;;
45476;SDS011;31958;51.756;-2.556;2024-01-15T04:36:45;0.70;;;0.70;;
45476;SDS011;31958;51.756;-2.556;2024-01-15T04:39:10;1.48;;;0.50;;
45476;SDS011;31958;51.756;-2.556;2024-01-15T04:41:36;5.43;;;1.00;;
45476;SDS011;31958;51.756;-2.556;2024-01-15T04:44:02;2.15;;;0.50;;
45476;SDS011;31958;51.756;-2.556;2024-01-15T04:46:27;5.80;;;0.90;;
45476;SDS011;31958;51.756;-2.556;2024-01-15T04:48:53;1.58;;;1.02;;
45476;SDS011;31958;51.756;-2.556;2024-01-15T04:51:18;0.85;;;0.50;;
45476;SDS011;31958;51.756;-2.556;2024-01-15T04:53:44;1.25;;;0.52;;
45476;SDS011;31958;51.756;-2.556;2024-01-15T04:56:09;9.35;;;0.93;;
45476;SDS011;31958;51.756;-2.556;2024-01-15T04:58:34;6.75;;;0.82;;
45476;SDS011;31958;51.756;-2.556;2024-01-15T05:01:00;2.20;;;0.60;;
45476;SDS011;31958;51.756;-2.556;2024-01-15T05:03:25;5.78;;;0.88;;
45476;SDS011;31958;51.756;-2.556;2024-01-15T05:05:50;0.35;;;0.30;;
45476;SDS011;31958;51.756;-2.556;2024-01-15T05:08:16;8.13;;;1.00;;
45476;SDS011;31958;51.756;-2.556;2024-01-15T05:10:41;0.43;;;0.43;;
45476;SDS011;31958;51.756;-2.556;2024-01-15T05:13:06;0.90;;;0.50;;
45476;SDS011;31958;51.756;-2.556;2024-01-15T05:15:32;0.30;;;0.30;;
45476;SDS011;31958;51.756;-2.556;2024-01-15T05:17:57;1.52;;;0.77;;
45476;SDS011;31958;51.756;-2.556;2024-01-15T05:20:22;3.97;;;0.85;;
45476;SDS011;31958;51.756;-2.556;2024-01-15T05:22:48;0.52;;;0.50;;
45476;SDS011;31958;51.756;-2.556;2024-01-15T05:25:13;5.53;;;1.02;;
45476;SDS011;31958;51.756;-2.556;2024-01-15T05:27:38;2.97;;;1.05;;
45476;SDS011;31958;51.756;-2.556;2024-01-15T05:30:04;0.35;;;0.30;;
45476;SDS011;31958;51.756;-2.556;2024-01-15T05:32:30;0.30;;;0.30;;
45476;SDS011;31958;51.756;-2.556;2024-01-15T05:34:55;0.68;;;0.45;;
45476;SDS011;31958;51.756;-2.556;2024-01-15T05:37:20;3.10;;;1.17;;
45476;SDS011;31958;51.756;-2.556;2024-01-15T05:39:46;1.98;;;0.88;;
45476;SDS011;31958;51.756;-2.556;2024-01-15T05:42:11;1.23;;;0.80;;
45476;SDS011;31958;51.756;-2.556;2024-01-15T05:44:36;1.02;;;0.68;;
45476;SDS011;31958;51.756;-2.556;2024-01-15T05:47:02;7.55;;;1.02;;
45476;SDS011;31958;51.756;-2.556;2024-01-15T05:49:29;3.00;;;0.70;;
45476;SDS011;31958;51.756;-2.556;2024-01-15T05:51:54;4.28;;;0.70;;
45476;SDS011;31958;51.756;-2.556;2024-01-15T05:54:19;1.05;;;0.60;;
45476;SDS011;31958;51.756;-2.556;2024-01-15T05:56:45;1.23;;;0.75;;
45476;SDS011;31958;51.756;-2.556;2024-01-15T05:59:10;1.25;;;0.65;;
45476;SDS011;31958;51.756;-2.556;2024-01-15T06:01:36;0.88;;;0.45;;
45476;SDS011;31958;51.756;-2.556;2024-01-15T06:04:01;3.75;;;0.73;;
45476;SDS011;31958;51.756;-2.556;2024-01-15T06:06:27;1.08;;;0.50;;
45476;SDS011;31958;51.756;-2.556;2024-01-15T06:08:52;0.57;;;0.47;;
45476;SDS011;31958;51.756;-2.556;2024-01-15T06:11:18;1.02;;;0.57;;
45476;SDS011;31958;51.756;-2.556;2024-01-15T06:13:43;0.75;;;0.50;;
45476;SDS011;31958;51.756;-2.556;2024-01-15T06:16:15;0.52;;;0.40;;
45476;SDS011;31958;51.756;-2.556;2024-01-15T06:18:45;1.70;;;0.73;;
45476;SDS011;31958;51.756;-2.556;2024-01-15T06:21:10;0.82;;;0.60;;
45476;SDS011;31958;51.756;-2.556;2024-01-15T06:23:37;0.40;;;0.40;;
45476;SDS011;31958;51.756;-2.556;2024-01-15T06:26:03;0.60;;;0.50;;
45476;SDS011;31958;51.756;-2.556;2024-01-15T06:28:29;0.50;;;0.50;;
45476;SDS011;31958;51.756;-2.556;2024-01-15T06:30:54;0.35;;;0.35;;
45476;SDS011;31958;51.756;-2.556;2024-01-15T06:33:19;0.95;;;0.50;;
45476;SDS011;31958;51.756;-2.556;2024-01-15T06:35:45;0.30;;;0.30;;
45476;SDS011;31958;51.756;-2.556;2024-01-15T06:38:10;0.30;;;0.30;;
45476;SDS011;31958;51.756;-2.556;2024-01-15T06:40:35;1.42;;;0.50;;
45476;SDS011;31958;51.756;-2.556;2024-01-15T06:43:01;14.70;;;1.05;;
45476;SDS011;31958;51.756;-2.556;2024-01-15T06:45:26;0.30;;;0.30;;
45476;SDS011;31958;51.756;-2.556;2024-01-15T06:47:51;1.00;;;0.55;;
45476;SDS011;31958;51.756;-2.556;2024-01-15T06:50:17;4.75;;;0.60;;
45476;SDS011;31958;51.756;-2.556;2024-01-15T06:52:42;2.45;;;0.70;;
45476;SDS011;31958;51.756;-2.556;2024-01-15T06:55:07;2.45;;;0.63;;
45476;SDS011;31958;51.756;-2.556;2024-01-15T06:57:33;0.60;;;0.43;;
45476;SDS011;31958;51.756;-2.556;2024-01-15T06:59:58;1.67;;;1.02;;
45476;SDS011;31958;51.756;-2.556;2024-01-15T07:02:23;5.93;;;0.70;;
45476;SDS011;31958;51.756;-2.556;2024-01-15T07:04:49;2.28;;;0.52;;
45476;SDS011;31958;51.756;-2.556;2024-01-15T07:07:14;0.80;;;0.47;;
45476;SDS011;31958;51.756;-2.556;2024-01-15T07:09:40;0.30;;;0.30;;
45476;SDS011;31958;51.756;-2.556;2024-01-15T07:12:05;0.30;;;0.30;;
45476;SDS011;31958;51.756;-2.556;2024-01-15T07:14:31;6.82;;;1.02;;
45476;SDS011;31958;51.756;-2.556;2024-01-15T07:16:56;1.48;;;0.50;;
45476;SDS011;31958;51.756;-2.556;2024-01-15T07:19:22;2.28;;;1.25;;
45476;SDS011;31958;51.756;-2.556;2024-01-15T07:21:47;0.38;;;0.38;;
45476;SDS011;31958;51.756;-2.556;2024-01-15T07:24:12;0.30;;;0.30;;
45476;SDS011;31958;51.756;-2.556;2024-01-15T07:26:38;0.65;;;0.60;;
45476;SDS011;31958;51.756;-2.556;2024-01-15T07:29:04;0.20;;;0.20;;
45476;SDS011;31958;51.756;-2.556;2024-01-15T07:31:29;0.60;;;0.50;;
45476;SDS011;31958;51.756;-2.556;2024-01-15T07:33:54;6.18;;;0.80;;
45476;SDS011;31958;51.756;-2.556;2024-01-15T07:36:20;0.82;;;0.55;;
45476;SDS011;31958;51.756;-2.556;2024-01-15T07:38:45;2.97;;;0.80;;
45476;SDS011;31958;51.756;-2.556;2024-01-15T07:41:12;0.40;;;0.40;;
45476;SDS011;31958;51.756;-2.556;2024-01-15T07:43:38;0.75;;;0.50;;
45476;SDS011;31958;51.756;-2.556;2024-01-15T07:46:04;4.75;;;1.17;;
45476;SDS011;31958;51.756;-2.556;2024-01-15T07:48:29;2.53;;;0.63;;
45476;SDS011;31958;51.756;-2.556;2024-01-15T07:50:54;1.90;;;0.85;;
45476;SDS011;31958;51.756;-2.556;2024-01-15T07:53:20;1.08;;;0.80;;
45476;SDS011;31958;51.756;-2.556;2024-01-15T07:55:45;2.28;;;0.82;;
45476;SDS011;31958;51.756;-2.556;2024-01-15T07:58:11;1.60;;;1.48;;
45476;SDS011;31958;51.756;-2.556;2024-01-15T08:00:36;3.88;;;0.95;;
45476;SDS011;31958;51.756;-2.556;2024-01-15T08:03:02;6.88;;;1.73;;
45476;SDS011;31958;51.756;-2.556;2024-01-15T08:05:27;1.90;;;0.85;;
45476;SDS011;31958;51.756;-2.556;2024-01-15T08:07:53;2.45;;;1.63;;
45476;SDS011;31958;51.756;-2.556;2024-01-15T08:10:18;3.72;;;0.85;;
45476;SDS011;31958;51.756;-2.556;2024-01-15T08:12:44;3.47;;;0.88;;
45476;SDS011;31958;51.756;-2.556;2024-01-15T08:15:09;4.78;;;1.23;;
45476;SDS011;31958;51.756;-2.556;2024-01-15T08:17:34;2.63;;;0.98;;
45476;SDS011;31958;51.756;-2.556;2024-01-15T08:20:00;1.33;;;0.85;;
45476;SDS011;31958;51.756;-2.556;2024-01-15T08:22:26;2.92;;;1.15;;
45476;SDS011;31958;51.756;-2.556;2024-01-15T08:24:51;3.72;;;1.35;;
45476;SDS011;31958;51.756;-2.556;2024-01-15T08:27:17;1.10;;;0.80;;
45476;SDS011;31958;51.756;-2.556;2024-01-15T08:29:42;3.38;;;1.50;;
45476;SDS011;31958;51.756;-2.556;2024-01-15T08:32:07;3.03;;;1.02;;
45476;SDS011;31958;51.756;-2.556;2024-01-15T08:34:38;7.25;;;2.03;;
45476;SDS011;31958;51.756;-2.556;2024-01-15T08:37:04;4.57;;;1.30;;
45476;SDS011;31958;51.756;-2.556;2024-01-15T08:39:29;2.10;;;1.00;;
45476;SDS011;31958;51.756;-2.556;2024-01-15T08:41:54;2.20;;;1.13;;
45476;SDS011;31958;51.756;-2.556;2024-01-15T08:44:20;2.95;;;1.05;;
45476;SDS011;31958;51.756;-2.556;2024-01-15T08:46:45;1.67;;;1.20;;
45476;SDS011;31958;51.756;-2.556;2024-01-15T08:49:10;3.10;;;0.90;;
45476;SDS011;31958;51.756;-2.556;2024-01-15T08:51:36;6.05;;;1.02;;
45476;SDS011;31958;51.756;-2.556;2024-01-15T08:54:01;3.15;;;0.75;;
45476;SDS011;31958;51.756;-2.556;2024-01-15T08:56:27;1.13;;;0.70;;
45476;SDS011;31958;51.756;-2.556;2024-01-15T08:58:52;5.13;;;0.93;;
45476;SDS011;31958;51.756;-2.556;2024-01-15T09:01:17;2.08;;;0.80;;
45476;SDS011;31958;51.756;-2.556;2024-01-15T09:03:44;0.88;;;0.70;;
45476;SDS011;31958;51.756;-2.556;2024-01-15T09:06:10;10.40;;;1.40;;
45476;SDS011;31958;51.756;-2.556;2024-01-15T09:08:35;2.17;;;0.95;;
45476;SDS011;31958;51.756;-2.556;2024-01-15T09:11:01;2.38;;;1.15;;
45476;SDS011;31958;51.756;-2.556;2024-01-15T09:13:28;4.05;;;1.42;;
45476;SDS011;31958;51.756;-2.556;2024-01-15T09:15:53;5.45;;;1.00;;
45476;SDS011;31958;51.756;-2.556;2024-01-15T09:18:18;9.85;;;1.67;;
45476;SDS011;31958;51.756;-2.556;2024-01-15T09:20:44;4.07;;;1.40;;
45476;SDS011;31958;51.756;-2.556;2024-01-15T09:23:09;3.53;;;1.52;;
45476;SDS011;31958;51.756;-2.556;2024-01-15T09:25:34;3.17;;;1.30;;
45476;SDS011;31958;51.756;-2.556;2024-01-15T09:28:00;5.28;;;1.92;;
45476;SDS011;31958;51.756;-2.556;2024-01-15T09:30:25;4.68;;;2.15;;
45476;SDS011;31958;51.756;-2.556;2024-01-15T09:32:50;8.65;;;1.98;;
45476;SDS011;31958;51.756;-2.556;2024-01-15T09:35:16;4.78;;;2.20;;
45476;SDS011;31958;51.756;-2.556;2024-01-15T09:37:41;13.75;;;3.03;;
45476;SDS011;31958;51.756;-2.556;2024-01-15T09:40:08;10.70;;;2.95;;
45476;SDS011;31958;51.756;-2.556;2024-01-15T09:42:33;7.03;;;2.92;;
45476;SDS011;31958;51.756;-2.556;2024-01-15T09:45:00;8.32;;;2.60;;
45476;SDS011;31958;51.756;-2.556;2024-01-15T09:47:26;7.20;;;2.65;;
45476;SDS011;31958;51.756;-2.556;2024-01-15T09:49:51;6.70;;;2.10;;
45476;SDS011;31958;51.756;-2.556;2024-01-15T09:52:16;12.75;;;2.80;;
45476;SDS011;31958;51.756;-2.556;2024-01-15T09:54:44;8.07;;;3.00;;
45476;SDS011;31958;51.756;-2.556;2024-01-15T09:57:10;10.15;;;2.90;;
45476;SDS011;31958;51.756;-2.556;2024-01-15T09:59:36;13.38;;;4.32;;
45476;SDS011;31958;51.756;-2.556;2024-01-15T10:02:02;9.65;;;3.30;;
45476;SDS011;31958;51.756;-2.556;2024-01-15T10:04:28;10.45;;;3.28;;
45476;SDS011;31958;51.756;-2.556;2024-01-15T10:06:53;6.18;;;3.00;;
45476;SDS011;31958;51.756;-2.556;2024-01-15T10:09:19;9.13;;;2.70;;
45476;SDS011;31958;51.756;-2.556;2024-01-15T10:11:44;8.00;;;2.75;;
45476;SDS011;31958;51.756;-2.556;2024-01-15T10:14:10;5.90;;;2.83;;
45476;SDS011;31958;51.756;-2.556;2024-01-15T10:16:39;7.35;;;3.25;;
45476;SDS011;31958;51.756;-2.556;2024-01-15T10:19:05;10.38;;;2.83;;
45476;SDS011;31958;51.756;-2.556;2024-01-15T10:21:33;8.05;;;2.28;;
45476;SDS011;31958;51.756;-2.556;2024-01-15T10:24:00;6.75;;;2.10;;
45476;SDS011;31958;51.756;-2.556;2024-01-15T10:26:25;4.38;;;1.70;;
45476;SDS011;31958;51.756;-2.556;2024-01-15T10:28:51;3.05;;;1.35;;
45476;SDS011;31958;51.756;-2.556;2024-01-15T10:31:19;3.70;;;1.50;;
45476;SDS011;31958;51.756;-2.556;2024-01-15T10:33:46;6.15;;;1.70;;
45476;SDS011;31958;51.756;-2.556;2024-01-15T10:36:15;6.15;;;2.38;;
45476;SDS011;31958;51.756;-2.556;2024-01-15T10:38:45;3.15;;;1.25;;
45476;SDS011;31958;51.756;-2.556;2024-01-15T10:41:11;1.23;;;0.70;;
45476;SDS011;31958;51.756;-2.556;2024-01-15T10:43:37;2.92;;;0.98;;
45476;SDS011;31958;51.756;-2.556;2024-01-15T10:46:03;1.48;;;0.90;;
45476;SDS011;31958;51.756;-2.556;2024-01-15T10:48:29;1.70;;;0.68;;
45476;SDS011;31958;51.756;-2.556;2024-01-15T10:50:59;4.45;;;0.82;;
45476;SDS011;31958;51.756;-2.556;2024-01-15T10:53:25;0.88;;;0.70;;
45476;SDS011;31958;51.756;-2.556;2024-01-15T10:55:51;1.45;;;0.65;;
45476;SDS011;31958;51.756;-2.556;2024-01-15T10:58:17;1.35;;;0.75;;
45476;SDS011;31958;51.756;-2.556;2024-01-15T11:00:43;1.33;;;0.70;;
45476;SDS011;31958;51.756;-2.556;2024-01-15T11:03:09;3.03;;;0.65;;
45476;SDS011;31958;51.756;-2.556;2024-01-15T11:05:37;2.20;;;0.60;;
45476;SDS011;31958;51.756;-2.556;2024-01-15T11:08:05;4.20;;;1.00;;
45476;SDS011;31958;51.756;-2.556;2024-01-15T11:10:41;1.17;;;0.55;;
45476;SDS011;31958;51.756;-2.556;2024-01-15T11:15:58;4.47;;;0.90;;
45476;SDS011;31958;51.756;-2.556;2024-01-15T11:18:29;4.63;;;0.70;;
45476;SDS011;31958;51.756;-2.556;2024-01-15T11:26:26;3.67;;;0.90;;
45476;SDS011;31958;51.756;-2.556;2024-01-15T11:28:56;1.20;;;0.98;;
45476;SDS011;31958;51.756;-2.556;2024-01-15T11:34:06;1.73;;;0.52;;
45476;SDS011;31958;51.756;-2.556;2024-01-15T11:42:02;0.88;;;0.55;;
45476;SDS011;31958;51.756;-2.556;2024-01-15T11:44:29;2.20;;;0.77;;
45476;SDS011;31958;51.756;-2.556;2024-01-15T11:49:25;1.02;;;0.50;;
45476;SDS011;31958;51.756;-2.556;2024-01-15T11:52:11;1.95;;;0.75;;
45476;SDS011;31958;51.756;-2.556;2024-01-15T11:54:40;5.07;;;0.77;;
45476;SDS011;31958;51.756;-2.556;2024-01-15T11:57:10;3.95;;;0.88;;
45476;SDS011;31958;51.756;-2.556;2024-01-15T11:59:40;2.00;;;0.55;;
45476;SDS011;31958;51.756;-2.556;2024-01-15T12:02:06;2.13;;;0.70;;
45476;SDS011;31958;51.756;-2.556;2024-01-15T12:04:32;5.43;;;0.77;;
45476;SDS011;31958;51.756;-2.556;2024-01-15T12:06:57;0.65;;;0.50;;
45476;SDS011;31958;51.756;-2.556;2024-01-15T12:09:22;4.97;;;0.80;;
45476;SDS011;31958;51.756;-2.556;2024-01-15T12:11:50;0.90;;;0.60;;
45476;SDS011;31958;51.756;-2.556;2024-01-15T12:14:18;3.83;;;0.50;;
45476;SDS011;31958;51.756;-2.556;2024-01-15T12:16:44;1.17;;;0.50;;
45476;SDS011;31958;51.756;-2.556;2024-01-15T12:19:09;2.55;;;0.50;;
45476;SDS011;31958;51.756;-2.556;2024-01-15T12:21:35;1.20;;;0.40;;
45476;SDS011;31958;51.756;-2.556;2024-01-15T12:24:00;0.95;;;0.55;;
45476;SDS011;31958;51.756;-2.556;2024-01-15T12:26:25;0.85;;;0.70;;
45476;SDS011;31958;51.756;-2.556;2024-01-15T12:28:51;3.65;;;1.30;;
45476;SDS011;31958;51.756;-2.556;2024-01-15T12:31:16;1.63;;;0.60;;
45476;SDS011;31958;51.756;-2.556;2024-01-15T12:33:41;3.05;;;0.50;;
45476;SDS011;31958;51.756;-2.556;2024-01-15T12:36:07;1.55;;;0.85;;
45476;SDS011;31958;51.756;-2.556;2024-01-15T12:38:32;1.77;;;0.73;;
45476;SDS011;31958;51.756;-2.556;2024-01-15T12:40:57;5.78;;;0.73;;
45476;SDS011;31958;51.756;-2.556;2024-01-15T12:43:25;1.88;;;0.50;;
45476;SDS011;31958;51.756;-2.556;2024-01-15T12:45:50;2.53;;;0.73;;
45476;SDS011;31958;51.756;-2.556;2024-01-15T12:48:16;2.92;;;0.80;;
45476;SDS011;31958;51.756;-2.556;2024-01-15T12:50:42;4.20;;;0.80;;
45476;SDS011;31958;51.756;-2.556;2024-01-15T12:53:08;1.65;;;0.68;;
45476;SDS011;31958;51.756;-2.556;2024-01-15T12:55:34;0.63;;;0.50;;
45476;SDS011;31958;51.756;-2.556;2024-01-15T12:57:59;5.60;;;0.73;;
45476;SDS011;31958;51.756;-2.556;2024-01-15T13:00:25;2.72;;;0.63;;
45476;SDS011;31958;51.756;-2.556;2024-01-15T13:02:51;0.68;;;0.50;;
45476;SDS011;31958;51.756;-2.556;2024-01-15T13:05:16;6.22;;;0.63;;
45476;SDS011;31958;51.756;-2.556;2024-01-15T13:07:42;2.55;;;0.60;;
45476;SDS011;31958;51.756;-2.556;2024-01-15T13:10:07;2.10;;;0.65;;
45476;SDS011;31958;51.756;-2.556;2024-01-15T13:12:34;0.90;;;0.52;;
45476;SDS011;31958;51.756;-2.556;2024-01-15T13:15:00;1.42;;;0.80;;
45476;SDS011;31958;51.756;-2.556;2024-01-15T13:17:28;0.43;;;0.40;;
45476;SDS011;31958;51.756;-2.556;2024-01-15T13:19:53;1.77;;;0.70;;
45476;SDS011;31958;51.756;-2.556;2024-01-15T13:22:19;4.45;;;0.90;;
45476;SDS011;31958;51.756;-2.556;2024-01-15T13:24:45;1.98;;;0.47;;
45476;SDS011;31958;51.756;-2.556;2024-01-15T13:27:11;0.65;;;0.50;;
45476;SDS011;31958;51.756;-2.556;2024-01-15T13:29:36;4.60;;;0.60;;
45476;SDS011;31958;51.756;-2.556;2024-01-15T13:32:02;7.03;;;0.90;;
45476;SDS011;31958;51.756;-2.556;2024-01-15T13:34:28;1.27;;;0.57;;
45476;SDS011;31958;51.756;-2.556;2024-01-15T13:36:53;9.88;;;1.02;;
45476;SDS011;31958;51.756;-2.556;2024-01-15T13:39:19;1.92;;;0.60;;
45476;SDS011;31958;51.756;-2.556;2024-01-15T13:41:48;2.28;;;0.50;;
45476;SDS011;31958;51.756;-2.556;2024-01-15T13:44:14;2.40;;;0.85;;
45476;SDS011;31958;51.756;-2.556;2024-01-15T13:46:39;1.40;;;0.50;;
45476;SDS011;31958;51.756;-2.556;2024-01-15T13:49:05;0.88;;;0.60;;
45476;SDS011;31958;51.756;-2.556;2024-01-15T13:51:31;2.90;;;0.70;;
45476;SDS011;31958;51.756;-2.556;2024-01-15T13:53:56;3.35;;;1.05;;
45476;SDS011;31958;51.756;-2.556;2024-01-15T13:56:22;9.40;;;1.17;;
45476;SDS011;31958;51.756;-2.556;2024-01-15T13:58:47;2.00;;;0.65;;
45476;SDS011;31958;51.756;-2.556;2024-01-15T14:01:13;0.55;;;0.43;;
45476;SDS011;31958;51.756;-2.556;2024-01-15T14:03:38;2.15;;;1.00;;
45476;SDS011;31958;51.756;-2.556;2024-01-15T14:06:04;1.15;;;0.50;;
45476;SDS011;31958;51.756;-2.556;2024-01-15T14:08:33;0.70;;;0.45;;
45476;SDS011;31958;51.756;-2.556;2024-01-15T14:11:00;3.55;;;0.80;;
45476;SDS011;31958;51.756;-2.556;2024-01-15T14:13:25;2.97;;;1.13;;
45476;SDS011;31958;51.756;-2.556;2024-01-15T14:15:50;6.00;;;1.15;;
45476;SDS011;31958;51.756;-2.556;2024-01-15T14:18:16;3.78;;;1.23;;
45476;SDS011;31958;51.756;-2.556;2024-01-15T14:20:42;5.18;;;0.70;;
45476;SDS011;31958;51.756;-2.556;2024-01-15T14:23:08;1.48;;;0.70;;
45476;SDS011;31958;51.756;-2.556;2024-01-15T14:25:33;6.15;;;0.73;;
45476;SDS011;31958;51.756;-2.556;2024-01-15T14:27:59;1.83;;;0.50;;
45476;SDS011;31958;51.756;-2.556;2024-01-15T14:30:25;4.88;;;0.80;;
45476;SDS011;31958;51.756;-2.556;2024-01-15T14:32:50;4.10;;;1.60;;
45476;SDS011;31958;51.756;-2.556;2024-01-15T14:35:15;10.82;;;1.15;;
45476;SDS011;31958;51.756;-2.556;2024-01-15T14:37:40;4.57;;;0.98;;
45476;SDS011;31958;51.756;-2.556;2024-01-15T14:40:06;1.92;;;0.73;;
45476;SDS011;31958;51.756;-2.556;2024-01-15T14:42:40;3.67;;;1.00;;
45476;SDS011;31958;51.756;-2.556;2024-01-15T14:45:06;3.42;;;0.80;;